createdAt,value
2022-12-15T02:44:41.059Z,-3.00
2022-12-15T02:45:54.158Z,-3.00
2022-12-15T02:47:17.944Z,-2.87
2022-12-15T02:48:49.598Z,-2.86
2022-12-15T02:49:59.534Z,-2.86
2022-12-15T02:51:27.420Z,-2.84
2022-12-15T02:52:52.423Z,-2.82
2022-12-15T02:54:05.394Z,-2.80
2022-12-15T02:55:43.589Z,-2.83
2022-12-15T02:57:02.695Z,-2.84
2022-12-15T02:58:17.042Z,-2.83
2022-12-15T02:59:27.043Z,-2.82
2022-12-15T03:00:34.143Z,-2.81
2022-12-15T03:01:46.860Z,-2.79
2022-12-15T03:02:54.640Z,-2.79
2022-12-15T03:04:04.338Z,-2.79
2022-12-15T03:05:14.222Z,-2.75
2022-12-15T03:06:21.189Z,-2.72
2022-12-15T03:07:33.828Z,-2.71
2022-12-15T03:08:34.740Z,-2.73
2022-12-15T03:09:43.654Z,-2.72
2022-12-15T03:10:52.564Z,-2.69
2022-12-15T03:12:01.077Z,-2.70
2022-12-15T03:13:05.190Z,-2.70
2022-12-15T03:14:09.192Z,-2.69
2022-12-15T03:15:16.194Z,-2.68
2022-12-15T03:16:22.632Z,-2.67
2022-12-15T03:17:26.615Z,-2.70
2022-12-15T03:18:32.286Z,-2.68
2022-12-15T03:19:43.507Z,-2.68
2022-12-15T03:20:47.562Z,-2.65
2022-12-15T03:21:54.266Z,-2.64
2022-12-15T03:22:57.446Z,-2.64
2022-12-15T03:24:34.373Z,-2.65
2022-12-15T03:25:09.121Z,-2.64
2022-12-15T03:26:16.472Z,-2.69
2022-12-15T03:27:26.859Z,-2.65
2022-12-15T03:28:34.332Z,-2.70
2022-12-15T03:29:38.551Z,-2.74
2022-12-15T03:30:44.300Z,-2.71
2022-12-15T03:31:51.301Z,-2.77
2022-12-15T03:32:56.796Z,-2.79
2022-12-15T03:34:05.609Z,-2.78
2022-12-15T03:35:23.365Z,-2.81
2022-12-15T03:36:31.872Z,-2.82
2022-12-15T03:37:37.821Z,-2.82
2022-12-15T03:38:42.799Z,-2.86
2022-12-15T03:39:51.452Z,-2.90
2022-12-15T03:40:55.514Z,-2.86
2022-12-15T03:41:59.826Z,-2.88
2022-12-15T03:43:05.479Z,-2.90
2022-12-15T03:44:09.571Z,-2.88
2022-12-15T03:45:16.365Z,-2.87
2022-12-15T03:46:23.868Z,-2.86
2022-12-15T03:47:40.491Z,-2.91
2022-12-15T03:48:35.238Z,-2.85
2022-12-15T03:49:42.431Z,-2.85
2022-12-15T03:50:53.807Z,-2.85
2022-12-15T03:51:58.915Z,-2.85
2022-12-15T03:53:07.997Z,-2.83
2022-12-15T03:54:14.190Z,-2.80
2022-12-15T03:55:18.508Z,-2.80
2022-12-15T03:56:23.195Z,-2.77
2022-12-15T03:57:27.100Z,-2.82
2022-12-15T03:58:31.018Z,-2.81
2022-12-15T03:59:40.372Z,-2.76
2022-12-15T04:00:42.243Z,-2.74
2022-12-15T04:01:48.998Z,-2.73
2022-12-15T04:02:55.460Z,-2.76
2022-12-15T04:04:01.538Z,-2.80
2022-12-15T04:05:11.674Z,-2.78
2022-12-15T04:06:17.276Z,-2.79
2022-12-15T04:07:22.863Z,-2.82
2022-12-15T04:08:26.921Z,-2.84
2022-12-15T04:09:30.913Z,-2.87
2022-12-15T04:10:39.179Z,-2.87
2022-12-15T04:12:05.684Z,-2.88
2022-12-15T04:13:09.278Z,-2.88
2022-12-15T04:14:18.284Z,-2.86
2022-12-15T04:15:25.422Z,-2.90
2022-12-15T04:16:29.624Z,-2.93
2022-12-15T04:17:37.754Z,-2.96
2022-12-15T04:18:41.866Z,-2.93
2022-12-15T04:19:47.447Z,-2.95
2022-12-15T04:20:56.010Z,-2.97
2022-12-15T04:21:59.942Z,-2.92
2022-12-15T04:23:04.054Z,-2.93
2022-12-15T04:24:08.320Z,-2.95
2022-12-15T04:25:21.528Z,-2.95
2022-12-15T04:26:32.327Z,-5.72
2022-12-15T04:28:53.171Z,-2.95
2022-12-15T04:29:18.147Z,-2.93
2022-12-15T04:29:57.266Z,-2.94
2022-12-15T04:31:12.919Z,-2.92
2022-12-15T04:32:18.729Z,-2.93
2022-12-15T04:33:30.503Z,-2.92
2022-12-15T04:34:31.694Z,-2.90
2022-12-15T04:35:37.267Z,-2.87
2022-12-15T04:36:45.610Z,-2.86
2022-12-15T04:37:51.732Z,-2.90
2022-12-15T04:38:55.938Z,-2.83
2022-12-15T04:40:00.829Z,-2.84
2022-12-15T04:41:07.306Z,-2.82
2022-12-15T04:42:13.554Z,-2.82
2022-12-15T04:43:19.098Z,-2.78
2022-12-15T04:44:26.935Z,-2.78
2022-12-15T04:45:36.260Z,-2.77
2022-12-15T04:46:40.269Z,-2.77
2022-12-15T04:47:44.383Z,-2.78
2022-12-15T04:48:50.035Z,-2.78
2022-12-15T04:49:54.133Z,-2.77
2022-12-15T04:50:59.679Z,-2.77
2022-12-15T04:52:05.244Z,-2.75
2022-12-15T04:53:13.450Z,-2.74
2022-12-15T04:54:17.066Z,-2.76
2022-12-15T04:55:21.055Z,-2.74
2022-12-15T04:56:24.988Z,-2.77
2022-12-15T04:57:29.004Z,-2.73
2022-12-15T04:58:34.313Z,-2.72
2022-12-15T04:59:38.165Z,-2.72
2022-12-15T05:00:42.268Z,-2.75
2022-12-15T05:01:47.005Z,-2.77
2022-12-15T05:02:53.659Z,-2.78
2022-12-15T05:03:57.659Z,-2.78
2022-12-15T05:05:03.192Z,-2.77
2022-12-15T05:06:08.289Z,-2.79
2022-12-15T05:07:12.475Z,-2.81
2022-12-15T05:08:17.640Z,-2.80
2022-12-15T05:09:23.191Z,-2.79
2022-12-15T05:10:27.207Z,-2.78
2022-12-15T05:11:38.045Z,-2.79
2022-12-15T05:12:40.500Z,-2.77
2022-12-15T05:13:44.657Z,-2.79
2022-12-15T05:14:49.582Z,-2.82
2022-12-15T05:15:55.527Z,-2.80
2022-12-15T05:17:00.913Z,-2.80
2022-12-15T05:18:05.120Z,-2.80
2022-12-15T05:19:09.157Z,-2.79
2022-12-15T05:20:13.181Z,-2.82
2022-12-15T05:21:20.950Z,-2.81
2022-12-15T05:22:28.136Z,-2.79
2022-12-15T05:23:36.469Z,-2.79
2022-12-15T05:25:08.800Z,-2.80
2022-12-15T05:26:07.717Z,-2.81
2022-12-15T05:26:58.369Z,-2.78
2022-12-15T05:28:05.356Z,-2.80
2022-12-15T05:29:09.422Z,-2.82
2022-12-15T05:30:16.164Z,-2.80
2022-12-15T05:31:20.903Z,-2.81
2022-12-15T05:32:24.950Z,-2.80
2022-12-15T05:33:29.380Z,-2.77
2022-12-15T05:34:35.330Z,-2.77
2022-12-15T05:35:42.101Z,-2.74
2022-12-15T05:36:48.267Z,-2.72
2022-12-15T05:37:53.991Z,-2.71
2022-12-15T05:39:01.187Z,-2.71
2022-12-15T05:40:07.497Z,-2.71
2022-12-15T05:41:11.433Z,-2.67
2022-12-15T05:42:17.026Z,-2.64
2022-12-15T05:43:26.197Z,-2.65
2022-12-15T05:44:28.823Z,-2.67
2022-12-15T05:45:37.062Z,-2.64
2022-12-15T05:46:42.574Z,-2.64
2022-12-15T05:47:49.653Z,-2.61
2022-12-15T05:49:00.109Z,-2.60
2022-12-15T05:50:01.101Z,-2.57
2022-12-15T05:51:10.009Z,-2.59
2022-12-15T05:52:17.693Z,-2.57
2022-12-15T05:53:22.016Z,-2.59
2022-12-15T05:54:26.198Z,-2.56
2022-12-15T10:30:33.796Z,-0.56
2022-12-15T10:31:54.384Z,-0.56
2022-12-15T21:57:41.130Z,0.29
2022-12-15T21:58:51.326Z,0.30
2022-12-15T21:59:59.158Z,0.32
2022-12-15T22:01:09.123Z,0.33
2022-12-15T22:03:55.421Z,0.36
2022-12-15T22:05:05.767Z,0.36
2022-12-15T22:06:15.956Z,0.37
2022-12-15T22:07:27.023Z,0.38
2022-12-15T22:08:35.799Z,0.39
2022-12-15T22:09:48.482Z,0.41
2022-12-15T22:11:09.415Z,0.41
2022-12-15T22:12:10.883Z,0.43
2022-12-15T22:14:48.372Z,0.47
2022-12-15T22:15:55.725Z,0.47
2022-12-15T22:17:01.976Z,0.47
2022-12-15T22:18:12.185Z,0.48
2022-12-15T22:19:19.280Z,0.50
2022-12-15T22:20:25.600Z,0.48
2022-12-15T22:21:31.208Z,0.47
2022-12-15T22:22:35.550Z,0.48
2022-12-15T22:23:40.013Z,0.47
2022-12-15T22:24:48.249Z,0.50
2022-12-15T22:25:55.361Z,0.49
2022-12-15T22:27:01.271Z,0.48
2022-12-15T22:28:06.900Z,0.50
2022-12-15T22:29:20.260Z,0.50
2022-12-15T22:30:27.031Z,0.49
2022-12-15T22:31:31.377Z,0.52
2022-12-15T22:32:37.451Z,0.52
2022-12-15T22:33:48.351Z,0.53
2022-12-15T22:34:52.773Z,0.54
2022-12-15T22:35:58.646Z,0.54
2022-12-15T22:37:02.920Z,0.52
2022-12-15T22:38:07.181Z,0.53
2022-12-15T22:39:13.632Z,0.54
2022-12-15T22:40:18.477Z,0.52
2022-12-15T22:41:31.070Z,0.50
2022-12-15T22:42:40.639Z,0.49
2022-12-15T22:43:49.476Z,0.48
2022-12-15T22:44:54.138Z,0.49
2022-12-15T22:46:05.741Z,0.49
2022-12-15T22:47:12.126Z,0.47
2022-12-15T22:48:20.087Z,0.46
2022-12-15T22:49:27.299Z,0.43
2022-12-15T22:50:31.710Z,0.41
2022-12-15T22:53:20.504Z,0.41
2022-12-15T22:54:27.265Z,0.39
2022-12-15T22:55:31.340Z,0.40
2022-12-15T22:56:38.450Z,0.40
2022-12-15T22:57:46.207Z,0.39
2022-12-15T23:22:44.098Z,0.07
2022-12-15T23:27:25.534Z,0.01
2022-12-15T23:28:30.023Z,-0.02
2022-12-15T23:29:34.287Z,-0.04
2022-12-15T23:30:45.181Z,-0.07
2022-12-15T23:31:50.728Z,-0.09
2022-12-15T23:32:55.508Z,-0.12
2022-12-15T23:34:01.544Z,-0.15
2022-12-15T23:35:10.996Z,-0.17
2022-12-15T23:36:31.054Z,-0.19
2022-12-15T23:37:43.437Z,-0.21
2022-12-15T23:38:58.238Z,-0.24
2022-12-15T23:40:16.475Z,-0.25
